sensor_id;sensor_type;location;lat;lon;timestamp;P1;durP1;ratioP1;P2;durP2;ratioP2
69369;SDS011;56530;42.640;23.372;2022-10-17T00:00:51;10.48;;;6.78;;
69369;SDS011;56530;42.640;23.372;2022-10-17T00:03:16;10.38;;;7.57;;
69369;SDS011;56530;42.640;23.372;2022-10-17T00:05:43;12.43;;;7.60;;
69369;SDS011;56530;42.640;23.372;2022-10-17T00:08:10;10.88;;;6.97;;
69369;SDS011;56530;42.640;23.372;2022-10-17T00:10:36;7.00;;;6.00;;
69369;SDS011;56530;42.640;23.372;2022-10-17T00:13:02;7.75;;;6.47;;
69369;SDS011;56530;42.640;23.372;2022-10-17T00:15:28;9.35;;;6.57;;
69369;SDS011;56530;42.640;23.372;2022-10-17T00:17:53;9.43;;;8.50;;
69369;SDS011;56530;42.640;23.372;2022-10-17T00:20:19;10.43;;;7.60;;
69369;SDS011;56530;42.640;23.372;2022-10-17T00:22:44;12.30;;;7.05;;
69369;SDS011;56530;42.640;23.372;2022-10-17T00:25:10;7.18;;;6.10;;
69369;SDS011;56530;42.640;23.372;2022-10-17T00:27:36;7.03;;;5.63;;
69369;SDS011;56530;42.640;23.372;2022-10-17T00:30:03;6.20;;;5.60;;
69369;SDS011;56530;42.640;23.372;2022-10-17T00:32:29;5.88;;;4.53;;
69369;SDS011;56530;42.640;23.372;2022-10-17T00:34:56;4.72;;;4.25;;
69369;SDS011;56530;42.640;23.372;2022-10-17T00:37:22;5.18;;;4.40;;
69369;SDS011;56530;42.640;23.372;2022-10-17T00:39:47;6.10;;;4.28;;
69369;SDS011;56530;42.640;23.372;2022-10-17T00:42:12;5.55;;;4.72;;
69369;SDS011;56530;42.640;23.372;2022-10-17T00:47:10;4.47;;;4.07;;
69369;SDS011;56530;42.640;23.372;2022-10-17T00:49:41;7.35;;;4.40;;
69369;SDS011;56530;42.640;23.372;2022-10-17T00:52:07;5.93;;;4.93;;
69369;SDS011;56530;42.640;23.372;2022-10-17T00:54:36;5.28;;;4.78;;
69369;SDS011;56530;42.640;23.372;2022-10-17T00:57:04;8.68;;;4.78;;
69369;SDS011;56530;42.640;23.372;2022-10-17T00:59:31;5.32;;;4.28;;
69369;SDS011;56530;42.640;23.372;2022-10-17T01:02:05;7.63;;;4.47;;
69369;SDS011;56530;42.640;23.372;2022-10-17T01:04:32;5.07;;;4.53;;
69369;SDS011;56530;42.640;23.372;2022-10-17T01:06:59;4.97;;;4.47;;
69369;SDS011;56530;42.640;23.372;2022-10-17T01:09:24;5.40;;;4.07;;
69369;SDS011;56530;42.640;23.372;2022-10-17T01:32:20;6.15;;;4.65;;
69369;SDS011;56530;42.640;23.372;2022-10-17T01:34:58;5.88;;;4.28;;
69369;SDS011;56530;42.640;23.372;2022-10-17T01:37:32;5.60;;;5.00;;
69369;SDS011;56530;42.640;23.372;2022-10-17T01:45:20;8.77;;;4.95;;
69369;SDS011;56530;42.640;23.372;2022-10-17T01:47:49;7.60;;;5.20;;
69369;SDS011;56530;42.640;23.372;2022-10-17T01:50:17;7.80;;;4.18;;
69369;SDS011;56530;42.640;23.372;2022-10-17T01:52:46;7.60;;;4.43;;
69369;SDS011;56530;42.640;23.372;2022-10-17T01:55:19;6.70;;;4.72;;
69369;SDS011;56530;42.640;23.372;2022-10-17T01:57:52;7.55;;;4.38;;
69369;SDS011;56530;42.640;23.372;2022-10-17T02:00:21;5.53;;;4.60;;
69369;SDS011;56530;42.640;23.372;2022-10-17T02:02:48;5.57;;;5.00;;
69369;SDS011;56530;42.640;23.372;2022-10-17T02:05:17;6.57;;;4.72;;
69369;SDS011;56530;42.640;23.372;2022-10-17T02:07:43;6.07;;;5.15;;
69369;SDS011;56530;42.640;23.372;2022-10-17T02:10:09;9.65;;;4.68;;
69369;SDS011;56530;42.640;23.372;2022-10-17T02:12:51;7.47;;;5.20;;
69369;SDS011;56530;42.640;23.372;2022-10-17T02:18:12;13.10;;;5.82;;
69369;SDS011;56530;42.640;23.372;2022-10-17T02:20:56;7.45;;;4.38;;
69369;SDS011;56530;42.640;23.372;2022-10-17T02:24:10;5.72;;;4.47;;
69369;SDS011;56530;42.640;23.372;2022-10-17T02:31:12;5.32;;;4.43;;
69369;SDS011;56530;42.640;23.372;2022-10-17T02:33:51;5.50;;;4.72;;
69369;SDS011;56530;42.640;23.372;2022-10-17T02:36:24;8.45;;;5.80;;
69369;SDS011;56530;42.640;23.372;2022-10-17T02:39:13;5.90;;;5.22;;
69369;SDS011;56530;42.640;23.372;2022-10-17T02:41:39;5.60;;;4.95;;
69369;SDS011;56530;42.640;23.372;2022-10-17T02:44:06;5.50;;;4.57;;
69369;SDS011;56530;42.640;23.372;2022-10-17T02:46:32;6.05;;;4.82;;
69369;SDS011;56530;42.640;23.372;2022-10-17T02:57:13;6.72;;;5.28;;
69369;SDS011;56530;42.640;23.372;2022-10-17T02:59:42;7.68;;;5.22;;
69369;SDS011;56530;42.640;23.372;2022-10-17T03:02:09;6.00;;;5.13;;
69369;SDS011;56530;42.640;23.372;2022-10-17T03:04:35;7.55;;;5.05;;
69369;SDS011;56530;42.640;23.372;2022-10-17T03:07:00;6.55;;;5.07;;
69369;SDS011;56530;42.640;23.372;2022-10-17T03:09:26;6.97;;;5.22;;
69369;SDS011;56530;42.640;23.372;2022-10-17T03:11:51;6.93;;;5.90;;
69369;SDS011;56530;42.640;23.372;2022-10-17T03:14:16;6.30;;;5.45;;
69369;SDS011;56530;42.640;23.372;2022-10-17T03:16:42;10.55;;;4.93;;
69369;SDS011;56530;42.640;23.372;2022-10-17T03:19:07;8.57;;;5.88;;
69369;SDS011;56530;42.640;23.372;2022-10-17T03:21:33;6.20;;;5.45;;
69369;SDS011;56530;42.640;23.372;2022-10-17T03:24:01;7.30;;;5.30;;
69369;SDS011;56530;42.640;23.372;2022-10-17T03:26:26;6.10;;;5.30;;
69369;SDS011;56530;42.640;23.372;2022-10-17T03:28:53;6.90;;;4.72;;
69369;SDS011;56530;42.640;23.372;2022-10-17T03:31:19;5.45;;;4.95;;
69369;SDS011;56530;42.640;23.372;2022-10-17T03:33:44;7.15;;;5.57;;
69369;SDS011;56530;42.640;23.372;2022-10-17T03:36:11;7.38;;;5.03;;
69369;SDS011;56530;42.640;23.372;2022-10-17T03:38:38;7.78;;;5.63;;
69369;SDS011;56530;42.640;23.372;2022-10-17T03:41:03;8.10;;;6.40;;
69369;SDS011;56530;42.640;23.372;2022-10-17T03:43:30;7.82;;;5.32;;
69369;SDS011;56530;42.640;23.372;2022-10-17T03:45:56;7.65;;;5.57;;
69369;SDS011;56530;42.640;23.372;2022-10-17T03:48:22;9.70;;;6.20;;
69369;SDS011;56530;42.640;23.372;2022-10-17T03:50:48;9.43;;;5.72;;
69369;SDS011;56530;42.640;23.372;2022-10-17T03:53:13;11.20;;;5.68;;
69369;SDS011;56530;42.640;23.372;2022-10-17T03:55:39;7.18;;;5.35;;
69369;SDS011;56530;42.640;23.372;2022-10-17T03:58:04;6.82;;;6.13;;
69369;SDS011;56530;42.640;23.372;2022-10-17T04:00:29;6.25;;;5.65;;
69369;SDS011;56530;42.640;23.372;2022-10-17T04:02:56;6.30;;;5.70;;
69369;SDS011;56530;42.640;23.372;2022-10-17T04:05:21;6.80;;;6.15;;
69369;SDS011;56530;42.640;23.372;2022-10-17T04:07:47;8.85;;;5.78;;
69369;SDS011;56530;42.640;23.372;2022-10-17T04:10:12;6.10;;;5.50;;
69369;SDS011;56530;42.640;23.372;2022-10-17T04:12:38;7.05;;;6.03;;
69369;SDS011;56530;42.640;23.372;2022-10-17T04:15:03;8.43;;;5.57;;
69369;SDS011;56530;42.640;23.372;2022-10-17T04:17:29;11.98;;;6.45;;
69369;SDS011;56530;42.640;23.372;2022-10-17T04:19:55;11.82;;;7.00;;
69369;SDS011;56530;42.640;23.372;2022-10-17T04:22:20;10.43;;;6.85;;
69369;SDS011;56530;42.640;23.372;2022-10-17T04:24:46;11.60;;;5.82;;
69369;SDS011;56530;42.640;23.372;2022-10-17T04:27:11;9.48;;;6.50;;
69369;SDS011;56530;42.640;23.372;2022-10-17T04:29:37;10.70;;;6.00;;
69369;SDS011;56530;42.640;23.372;2022-10-17T04:32:02;7.30;;;6.00;;
69369;SDS011;56530;42.640;23.372;2022-10-17T04:34:28;7.53;;;6.10;;
69369;SDS011;56530;42.640;23.372;2022-10-17T04:36:53;6.90;;;5.68;;
69369;SDS011;56530;42.640;23.372;2022-10-17T04:39:18;12.57;;;6.82;;
69369;SDS011;56530;42.640;23.372;2022-10-17T04:41:44;9.20;;;6.00;;
69369;SDS011;56530;42.640;23.372;2022-10-17T04:44:09;10.63;;;5.75;;
69369;SDS011;56530;42.640;23.372;2022-10-17T04:46:35;13.13;;;6.72;;
69369;SDS011;56530;42.640;23.372;2022-10-17T04:49:00;8.27;;;6.60;;
69369;SDS011;56530;42.640;23.372;2022-10-17T04:51:26;35.60;;;18.65;;
69369;SDS011;56530;42.640;23.372;2022-10-17T04:53:51;9.13;;;6.30;;
69369;SDS011;56530;42.640;23.372;2022-10-17T04:56:21;19.67;;;7.13;;
69369;SDS011;56530;42.640;23.372;2022-10-17T04:58:47;8.93;;;5.90;;
69369;SDS011;56530;42.640;23.372;2022-10-17T05:01:13;15.98;;;7.28;;
69369;SDS011;56530;42.640;23.372;2022-10-17T05:03:40;7.72;;;5.32;;
69369;SDS011;56530;42.640;23.372;2022-10-17T05:06:07;5.68;;;5.07;;
69369;SDS011;56530;42.640;23.372;2022-10-17T05:08:34;7.43;;;5.00;;
69369;SDS011;56530;42.640;23.372;2022-10-17T05:10:59;6.25;;;5.13;;
69369;SDS011;56530;42.640;23.372;2022-10-17T05:13:25;7.22;;;5.10;;
69369;SDS011;56530;42.640;23.372;2022-10-17T05:15:50;6.95;;;5.70;;
69369;SDS011;56530;42.640;23.372;2022-10-17T05:18:16;10.13;;;5.55;;
69369;SDS011;56530;42.640;23.372;2022-10-17T05:20:41;5.90;;;5.03;;
69369;SDS011;56530;42.640;23.372;2022-10-17T05:23:06;9.75;;;5.20;;
69369;SDS011;56530;42.640;23.372;2022-10-17T05:25:32;9.13;;;5.10;;
69369;SDS011;56530;42.640;23.372;2022-10-17T05:27:57;7.10;;;5.50;;
69369;SDS011;56530;42.640;23.372;2022-10-17T05:30:22;7.28;;;5.10;;
69369;SDS011;56530;42.640;23.372;2022-10-17T05:32:50;9.43;;;4.82;;
69369;SDS011;56530;42.640;23.372;2022-10-17T05:35:17;6.00;;;4.70;;
69369;SDS011;56530;42.640;23.372;2022-10-17T05:37:42;6.00;;;5.40;;
69369;SDS011;56530;42.640;23.372;2022-10-17T05:40:08;6.20;;;4.65;;
69369;SDS011;56530;42.640;23.372;2022-10-17T05:42:33;8.20;;;5.38;;
69369;SDS011;56530;42.640;23.372;2022-10-17T05:44:59;15.18;;;5.28;;
69369;SDS011;56530;42.640;23.372;2022-10-17T05:47:24;6.53;;;4.90;;
69369;SDS011;56530;42.640;23.372;2022-10-17T05:49:49;5.57;;;4.80;;
69369;SDS011;56530;42.640;23.372;2022-10-17T05:52:15;7.95;;;5.45;;
69369;SDS011;56530;42.640;23.372;2022-10-17T05:54:40;6.43;;;5.50;;
69369;SDS011;56530;42.640;23.372;2022-10-17T05:57:06;10.00;;;4.97;;
69369;SDS011;56530;42.640;23.372;2022-10-17T05:59:31;6.45;;;5.60;;
69369;SDS011;56530;42.640;23.372;2022-10-17T06:01:56;7.35;;;5.40;;
69369;SDS011;56530;42.640;23.372;2022-10-17T06:04:22;7.18;;;4.97;;
69369;SDS011;56530;42.640;23.372;2022-10-17T06:06:47;8.27;;;5.43;;
69369;SDS011;56530;42.640;23.372;2022-10-17T06:09:12;8.10;;;5.35;;
69369;SDS011;56530;42.640;23.372;2022-10-17T06:11:38;6.78;;;5.55;;
69369;SDS011;56530;42.640;23.372;2022-10-17T06:14:03;13.73;;;5.43;;
69369;SDS011;56530;42.640;23.372;2022-10-17T06:16:29;10.85;;;5.60;;
69369;SDS011;56530;42.640;23.372;2022-10-17T06:18:54;6.18;;;5.00;;
69369;SDS011;56530;42.640;23.372;2022-10-17T06:21:24;6.25;;;5.35;;
69369;SDS011;56530;42.640;23.372;2022-10-17T06:23:50;7.15;;;4.72;;
69369;SDS011;56530;42.640;23.372;2022-10-17T06:26:16;7.30;;;6.03;;
69369;SDS011;56530;42.640;23.372;2022-10-17T06:28:42;7.90;;;5.13;;
69369;SDS011;56530;42.640;23.372;2022-10-17T06:31:08;7.00;;;6.18;;
69369;SDS011;56530;42.640;23.372;2022-10-17T06:33:36;6.50;;;5.88;;
69369;SDS011;56530;42.640;23.372;2022-10-17T06:36:02;8.88;;;6.47;;
69369;SDS011;56530;42.640;23.372;2022-10-17T06:38:29;11.15;;;7.15;;
69369;SDS011;56530;42.640;23.372;2022-10-17T06:41:01;10.95;;;6.38;;
69369;SDS011;56530;42.640;23.372;2022-10-17T06:43:46;8.63;;;6.72;;
69369;SDS011;56530;42.640;23.372;2022-10-17T06:46:13;13.88;;;7.50;;
69369;SDS011;56530;42.640;23.372;2022-10-17T06:48:39;16.95;;;8.40;;
69369;SDS011;56530;42.640;23.372;2022-10-17T06:51:05;11.73;;;10.20;;
69369;SDS011;56530;42.640;23.372;2022-10-17T06:53:33;13.35;;;9.50;;
69369;SDS011;56530;42.640;23.372;2022-10-17T06:55:59;12.55;;;10.40;;
69369;SDS011;56530;42.640;23.372;2022-10-17T06:58:32;15.13;;;10.68;;
69369;SDS011;56530;42.640;23.372;2022-10-17T07:01:03;17.52;;;10.30;;
69369;SDS011;56530;42.640;23.372;2022-10-17T07:03:30;13.25;;;9.02;;
69369;SDS011;56530;42.640;23.372;2022-10-17T07:05:56;20.85;;;10.10;;
69369;SDS011;56530;42.640;23.372;2022-10-17T07:08:22;13.15;;;10.88;;
69369;SDS011;56530;42.640;23.372;2022-10-17T07:10:47;12.63;;;10.65;;
69369;SDS011;56530;42.640;23.372;2022-10-17T07:13:13;20.85;;;11.68;;
69369;SDS011;56530;42.640;23.372;2022-10-17T07:15:38;20.20;;;11.73;;
69369;SDS011;56530;42.640;23.372;2022-10-17T07:18:04;18.85;;;11.73;;
69369;SDS011;56530;42.640;23.372;2022-10-17T07:20:30;23.50;;;10.77;;
69369;SDS011;56530;42.640;23.372;2022-10-17T07:22:56;17.98;;;11.55;;
69369;SDS011;56530;42.640;23.372;2022-10-17T07:25:21;18.77;;;10.98;;
69369;SDS011;56530;42.640;23.372;2022-10-17T07:27:47;20.52;;;10.43;;
69369;SDS011;56530;42.640;23.372;2022-10-17T07:30:13;16.02;;;11.20;;
69369;SDS011;56530;42.640;23.372;2022-10-17T07:32:39;13.35;;;10.77;;
69369;SDS011;56530;42.640;23.372;2022-10-17T07:35:05;25.20;;;10.93;;
69369;SDS011;56530;42.640;23.372;2022-10-17T07:37:31;21.35;;;9.95;;
69369;SDS011;56530;42.640;23.372;2022-10-17T07:39:57;12.38;;;11.05;;
69369;SDS011;56530;42.640;23.372;2022-10-17T07:42:22;18.95;;;10.80;;
69369;SDS011;56530;42.640;23.372;2022-10-17T07:44:48;13.73;;;11.57;;
69369;SDS011;56530;42.640;23.372;2022-10-17T07:47:13;23.33;;;11.98;;
69369;SDS011;56530;42.640;23.372;2022-10-17T07:49:38;21.48;;;10.68;;
69369;SDS011;56530;42.640;23.372;2022-10-17T07:52:09;20.65;;;11.85;;
69369;SDS011;56530;42.640;23.372;2022-10-17T07:54:35;27.58;;;12.68;;
69369;SDS011;56530;42.640;23.372;2022-10-17T07:57:01;25.70;;;11.52;;
69369;SDS011;56530;42.640;23.372;2022-10-17T07:59:29;20.20;;;11.18;;
69369;SDS011;56530;42.640;23.372;2022-10-17T08:01:56;17.20;;;11.75;;
69369;SDS011;56530;42.640;23.372;2022-10-17T08:04:23;17.75;;;11.40;;
69369;SDS011;56530;42.640;23.372;2022-10-17T08:06:49;19.98;;;12.38;;
69369;SDS011;56530;42.640;23.372;2022-10-17T08:09:14;25.10;;;12.02;;
69369;SDS011;56530;42.640;23.372;2022-10-17T08:11:40;20.60;;;12.07;;
69369;SDS011;56530;42.640;23.372;2022-10-17T08:14:07;19.88;;;11.30;;
69369;SDS011;56530;42.640;23.372;2022-10-17T08:16:34;16.27;;;11.18;;
69369;SDS011;56530;42.640;23.372;2022-10-17T08:18:59;18.10;;;11.57;;
69369;SDS011;56530;42.640;23.372;2022-10-17T08:21:25;17.83;;;11.10;;
69369;SDS011;56530;42.640;23.372;2022-10-17T08:23:50;24.63;;;10.63;;
69369;SDS011;56530;42.640;23.372;2022-10-17T08:26:15;28.50;;;11.32;;
69369;SDS011;56530;42.640;23.372;2022-10-17T08:28:41;25.17;;;12.38;;
69369;SDS011;56530;42.640;23.372;2022-10-17T08:31:09;25.42;;;11.68;;
69369;SDS011;56530;42.640;23.372;2022-10-17T08:33:36;17.23;;;9.32;;
69369;SDS011;56530;42.640;23.372;2022-10-17T08:36:02;15.30;;;8.55;;
69369;SDS011;56530;42.640;23.372;2022-10-17T08:38:28;31.75;;;10.32;;
69369;SDS011;56530;42.640;23.372;2022-10-17T08:40:59;16.95;;;8.65;;
69369;SDS011;56530;42.640;23.372;2022-10-17T08:46:15;14.88;;;8.70;;
69369;SDS011;56530;42.640;23.372;2022-10-17T08:48:42;19.17;;;8.65;;
69369;SDS011;56530;42.640;23.372;2022-10-17T08:51:14;17.00;;;7.28;;
69369;SDS011;56530;42.640;23.372;2022-10-17T08:56:18;15.57;;;7.20;;
69369;SDS011;56530;42.640;23.372;2022-10-17T08:58:44;6.70;;;6.00;;
69369;SDS011;56530;42.640;23.372;2022-10-17T09:01:25;10.57;;;6.25;;
69369;SDS011;56530;42.640;23.372;2022-10-17T09:18:14;20.27;;;7.80;;
69369;SDS011;56530;42.640;23.372;2022-10-17T09:20:44;11.43;;;7.93;;
69369;SDS011;56530;42.640;23.372;2022-10-17T09:23:16;17.52;;;7.45;;
69369;SDS011;56530;42.640;23.372;2022-10-17T09:25:44;24.65;;;7.32;;
69369;SDS011;56530;42.640;23.372;2022-10-17T09:28:14;18.23;;;7.38;;
69369;SDS011;56530;42.640;23.372;2022-10-17T09:33:28;15.32;;;6.63;;
69369;SDS011;56530;42.640;23.372;2022-10-17T09:36:08;16.38;;;5.80;;
69369;SDS011;56530;42.640;23.372;2022-10-17T09:38:40;16.75;;;6.90;;
69369;SDS011;56530;42.640;23.372;2022-10-17T09:41:21;10.25;;;5.78;;
69369;SDS011;56530;42.640;23.372;2022-10-17T09:43:48;13.93;;;5.60;;
69369;SDS011;56530;42.640;23.372;2022-10-17T09:46:21;9.18;;;5.47;;
69369;SDS011;56530;42.640;23.372;2022-10-17T09:48:55;12.25;;;6.10;;
69369;SDS011;56530;42.640;23.372;2022-10-17T09:51:24;13.10;;;6.40;;
69369;SDS011;56530;42.640;23.372;2022-10-17T09:53:51;10.13;;;5.28;;
69369;SDS011;56530;42.640;23.372;2022-10-17T09:56:19;10.85;;;4.32;;
69369;SDS011;56530;42.640;23.372;2022-10-17T09:58:46;9.25;;;4.97;;
69369;SDS011;56530;42.640;23.372;2022-10-17T10:01:14;8.88;;;5.70;;
69369;SDS011;56530;42.640;23.372;2022-10-17T10:03:46;8.25;;;5.85;;
69369;SDS011;56530;42.640;23.372;2022-10-17T10:06:16;10.95;;;6.10;;
69369;SDS011;56530;42.640;23.372;2022-10-17T10:08:47;9.23;;;4.90;;
69369;SDS011;56530;42.640;23.372;2022-10-17T10:11:18;6.15;;;4.75;;
69369;SDS011;56530;42.640;23.372;2022-10-17T10:13:48;8.60;;;4.35;;
69369;SDS011;56530;42.640;23.372;2022-10-17T10:16:29;5.35;;;4.80;;
69369;SDS011;56530;42.640;23.372;2022-10-17T10:18:55;10.38;;;4.90;;
69369;SDS011;56530;42.640;23.372;2022-10-17T10:21:22;5.93;;;4.75;;
69369;SDS011;56530;42.640;23.372;2022-10-17T10:26:24;4.70;;;3.35;;
69369;SDS011;56530;42.640;23.372;2022-10-17T10:28:56;6.25;;;3.83;;
69369;SDS011;56530;42.640;23.372;2022-10-17T10:31:25;11.02;;;3.30;;
69369;SDS011;56530;42.640;23.372;2022-10-17T10:33:52;4.40;;;2.85;;
69369;SDS011;56530;42.640;23.372;2022-10-17T10:36:17;4.93;;;3.58;;
69369;SDS011;56530;42.640;23.372;2022-10-17T10:38:50;5.78;;;3.55;;
69369;SDS011;56530;42.640;23.372;2022-10-17T10:41:17;6.40;;;3.63;;
69369;SDS011;56530;42.640;23.372;2022-10-17T10:43:44;6.63;;;3.20;;
69369;SDS011;56530;42.640;23.372;2022-10-17T10:46:24;9.15;;;3.60;;
69369;SDS011;56530;42.640;23.372;2022-10-17T10:48:59;6.10;;;2.92;;
69369;SDS011;56530;42.640;23.372;2022-10-17T10:51:29;6.03;;;2.90;;
69369;SDS011;56530;42.640;23.372;2022-10-17T10:54:02;3.80;;;2.97;;
69369;SDS011;56530;42.640;23.372;2022-10-17T11:01:56;3.67;;;3.25;;
69369;SDS011;56530;42.640;23.372;2022-10-17T11:04:38;3.80;;;3.13;;
69369;SDS011;56530;42.640;23.372;2022-10-17T11:07:10;3.80;;;3.28;;
69369;SDS011;56530;42.640;23.372;2022-10-17T11:12:33;4.25;;;3.83;;
69369;SDS011;56530;42.640;23.372;2022-10-17T11:17:51;4.88;;;3.35;;
69369;SDS011;56530;42.640;23.372;2022-10-17T11:20:28;3.38;;;2.90;;
69369;SDS011;56530;42.640;23.372;2022-10-17T11:22:59;4.30;;;3.45;;
69369;SDS011;56530;42.640;23.372;2022-10-17T11:25:36;4.63;;;2.97;;
69369;SDS011;56530;42.640;23.372;2022-10-17T11:28:02;4.70;;;2.83;;
69369;SDS011;56530;42.640;23.372;2022-10-17T11:30:32;7.80;;;2.90;;
69369;SDS011;56530;42.640;23.372;2022-10-17T11:33:04;6.78;;;2.78;;
69369;SDS011;56530;42.640;23.372;2022-10-17T11:35:31;3.03;;;2.72;;
69369;SDS011;56530;42.640;23.372;2022-10-17T11:38:11;3.33;;;3.03;;
69369;SDS011;56530;42.640;23.372;2022-10-17T11:40:41;5.80;;;3.72;;
69369;SDS011;56530;42.640;23.372;2022-10-17T11:43:21;10.05;;;3.75;;
69369;SDS011;56530;42.640;23.372;2022-10-17T11:45:54;3.22;;;2.90;;
69369;SDS011;56530;42.640;23.372;2022-10-17T11:51:08;7.45;;;3.90;;
69369;SDS011;56530;42.640;23.372;2022-10-17T11:56:26;4.43;;;3.20;;
69369;SDS011;56530;42.640;23.372;2022-10-17T12:01:48;8.02;;;3.60;;
69369;SDS011;56530;42.640;23.372;2022-10-17T12:07:21;3.45;;;3.00;;
69369;SDS011;56530;42.640;23.372;2022-10-17T12:12:27;5.20;;;2.85;;
69369;SDS011;56530;42.640;23.372;2022-10-17T12:17:42;4.50;;;3.03;;
69369;SDS011;56530;42.640;23.372;2022-10-17T12:22:49;3.15;;;2.83;;
69369;SDS011;56530;42.640;23.372;2022-10-17T12:25:17;4.03;;;3.53;;
69369;SDS011;56530;42.640;23.372;2022-10-17T12:27:47;3.08;;;2.60;;
69369;SDS011;56530;42.640;23.372;2022-10-17T12:30:18;6.50;;;2.83;;
69369;SDS011;56530;42.640;23.372;2022-10-17T12:35:21;4.82;;;3.20;;
